sensor_id;sensor_type;location;lat;lon;timestamp;noise_LAeq;noise_LA_min;noise_LA_max;noise_LA01;noise_LA95
77134;Laerm;25175;50.140;18.990;2023-07-20T00:00:27;38.12;35.46;42.66;;
77134;Laerm;25175;50.140;18.990;2023-07-20T00:03:32;38.43;35.47;43.02;;
77134;Laerm;25175;50.140;18.990;2023-07-20T00:06:39;38.53;34.70;44.03;;
77134;Laerm;25175;50.140;18.990;2023-07-20T00:09:44;40.38;36.02;48.76;;
77134;Laerm;25175;50.140;18.990;2023-07-20T00:12:50;38.69;34.70;46.62;;
77134;Laerm;25175;50.140;18.990;2023-07-20T00:15:54;37.31;34.65;42.16;;
77134;Laerm;25175;50.140;18.990;2023-07-20T00:18:59;37.57;34.85;51.38;;
77134;Laerm;25175;50.140;18.990;2023-07-20T00:22:07;42.76;34.71;58.76;;
77134;Laerm;25175;50.140;18.990;2023-07-20T00:25:13;39.93;34.57;60.75;;
77134;Laerm;25175;50.140;18.990;2023-07-20T00:28:17;39.11;35.32;56.59;;
77134;Laerm;25175;50.140;18.990;2023-07-20T00:31:24;40.61;34.99;55.76;;
77134;Laerm;25175;50.140;18.990;2023-07-20T00:34:32;38.75;35.11;48.75;;
77134;Laerm;25175;50.140;18.990;2023-07-20T00:37:40;38.72;35.88;44.78;;
77134;Laerm;25175;50.140;18.990;2023-07-20T00:40:45;39.59;34.69;55.92;;
77134;Laerm;25175;50.140;18.990;2023-07-20T00:43:50;41.94;34.65;60.11;;
77134;Laerm;25175;50.140;18.990;2023-07-20T00:46:55;38.50;35.19;49.15;;
77134;Laerm;25175;50.140;18.990;2023-07-20T00:50:03;39.09;36.17;51.03;;
77134;Laerm;25175;50.140;18.990;2023-07-20T00:53:11;39.20;35.92;46.32;;
77134;Laerm;25175;50.140;18.990;2023-07-20T00:56:17;40.16;35.18;59.57;;
77134;Laerm;25175;50.140;18.990;2023-07-20T00:59:22;37.86;35.14;44.81;;
77134;Laerm;25175;50.140;18.990;2023-07-20T01:02:27;39.90;36.34;48.90;;
77134;Laerm;25175;50.140;18.990;2023-07-20T01:05:42;39.90;35.69;48.50;;
77134;Laerm;25175;50.140;18.990;2023-07-20T01:09:08;37.86;34.39;48.01;;
77134;Laerm;25175;50.140;18.990;2023-07-20T01:12:26;37.19;34.99;44.36;;
77134;Laerm;25175;50.140;18.990;2023-07-20T01:15:34;36.20;33.38;41.02;;
77134;Laerm;25175;50.140;18.990;2023-07-20T01:18:38;36.27;33.50;47.03;;
77134;Laerm;25175;50.140;18.990;2023-07-20T01:21:56;35.87;33.34;39.95;;
77134;Laerm;25175;50.140;18.990;2023-07-20T01:25:30;35.99;33.41;42.85;;
77134;Laerm;25175;50.140;18.990;2023-07-20T01:29:22;35.96;33.38;39.81;;
77134;Laerm;25175;50.140;18.990;2023-07-20T01:32:43;36.25;33.49;39.56;;
77134;Laerm;25175;50.140;18.990;2023-07-20T01:35:56;35.83;33.27;39.91;;
77134;Laerm;25175;50.140;18.990;2023-07-20T01:39:06;39.64;34.03;55.85;;
77134;Laerm;25175;50.140;18.990;2023-07-20T01:42:12;36.86;33.77;47.27;;
77134;Laerm;25175;50.140;18.990;2023-07-20T01:45:17;36.28;33.27;44.86;;
77134;Laerm;25175;50.140;18.990;2023-07-20T01:48:24;35.88;33.64;40.00;;
77134;Laerm;25175;50.140;18.990;2023-07-20T01:51:30;37.09;33.56;46.07;;
77134;Laerm;25175;50.140;18.990;2023-07-20T01:54:34;36.28;33.67;40.09;;
77134;Laerm;25175;50.140;18.990;2023-07-20T01:57:39;36.14;33.79;40.55;;
77134;Laerm;25175;50.140;18.990;2023-07-20T02:00:44;39.68;33.30;55.86;;
77134;Laerm;25175;50.140;18.990;2023-07-20T02:03:52;35.78;33.55;43.79;;
77134;Laerm;25175;50.140;18.990;2023-07-20T02:06:57;37.14;33.59;55.23;;
77134;Laerm;25175;50.140;18.990;2023-07-20T02:10:05;36.77;33.46;50.69;;
77134;Laerm;25175;50.140;18.990;2023-07-20T02:13:10;38.74;33.61;52.77;;
77134;Laerm;25175;50.140;18.990;2023-07-20T02:16:15;36.24;33.39;43.29;;
77134;Laerm;25175;50.140;18.990;2023-07-20T02:19:24;38.30;34.41;45.06;;
77134;Laerm;25175;50.140;18.990;2023-07-20T02:22:29;36.87;33.53;42.78;;
77134;Laerm;25175;50.140;18.990;2023-07-20T02:25:34;37.21;34.08;48.56;;
77134;Laerm;25175;50.140;18.990;2023-07-20T02:28:39;39.33;34.66;46.97;;
77134;Laerm;25175;50.140;18.990;2023-07-20T02:31:43;37.46;33.77;43.44;;
77134;Laerm;25175;50.140;18.990;2023-07-20T02:34:51;36.30;33.59;40.24;;
77134;Laerm;25175;50.140;18.990;2023-07-20T02:37:57;36.55;33.85;41.37;;
77134;Laerm;25175;50.140;18.990;2023-07-20T02:41:02;39.77;33.99;57.59;;
77134;Laerm;25175;50.140;18.990;2023-07-20T02:44:07;37.57;34.15;55.22;;
77134;Laerm;25175;50.140;18.990;2023-07-20T02:47:12;40.95;34.46;57.83;;
77134;Laerm;25175;50.140;18.990;2023-07-20T02:50:19;38.20;33.95;60.59;;
77134;Laerm;25175;50.140;18.990;2023-07-20T02:53:25;42.10;33.96;62.75;;
77134;Laerm;25175;50.140;18.990;2023-07-20T02:56:30;39.10;33.92;56.25;;
77134;Laerm;25175;50.140;18.990;2023-07-20T02:59:35;36.46;33.97;43.17;;
77134;Laerm;25175;50.140;18.990;2023-07-20T03:02:39;39.36;34.26;55.88;;
77134;Laerm;25175;50.140;18.990;2023-07-20T03:05:47;41.45;34.58;53.61;;
77134;Laerm;25175;50.140;18.990;2023-07-20T03:08:55;39.65;34.62;46.94;;
77134;Laerm;25175;50.140;18.990;2023-07-20T03:12:01;45.11;34.83;69.39;;
77134;Laerm;25175;50.140;18.990;2023-07-20T03:15:08;41.58;34.74;59.63;;
77134;Laerm;25175;50.140;18.990;2023-07-20T03:18:14;40.02;34.18;53.63;;
77134;Laerm;25175;50.140;18.990;2023-07-20T03:21:21;39.29;34.14;55.75;;
77134;Laerm;25175;50.140;18.990;2023-07-20T03:24:26;41.00;34.75;56.97;;
77134;Laerm;25175;50.140;18.990;2023-07-20T03:27:31;43.07;34.86;61.20;;
77134;Laerm;25175;50.140;18.990;2023-07-20T03:30:37;39.47;34.72;49.93;;
77134;Laerm;25175;50.140;18.990;2023-07-20T03:33:42;41.55;34.93;54.97;;
77134;Laerm;25175;50.140;18.990;2023-07-20T03:36:50;42.86;34.65;56.14;;
77134;Laerm;25175;50.140;18.990;2023-07-20T03:39:55;44.61;34.62;57.80;;
77134;Laerm;25175;50.140;18.990;2023-07-20T03:43:00;44.07;35.28;60.64;;
77134;Laerm;25175;50.140;18.990;2023-07-20T03:46:04;38.52;34.75;50.02;;
77134;Laerm;25175;50.140;18.990;2023-07-20T03:49:10;47.79;34.58;67.10;;
77134;Laerm;25175;50.140;18.990;2023-07-20T03:52:17;44.44;35.02;65.40;;
77134;Laerm;25175;50.140;18.990;2023-07-20T03:55:22;41.30;33.93;56.03;;
77134;Laerm;25175;50.140;18.990;2023-07-20T03:58:27;38.60;33.95;49.54;;
77134;Laerm;25175;50.140;18.990;2023-07-20T04:01:33;39.94;33.64;56.57;;
77134;Laerm;25175;50.140;18.990;2023-07-20T04:04:38;37.73;33.99;50.44;;
77134;Laerm;25175;50.140;18.990;2023-07-20T04:07:46;43.01;33.92;65.73;;
77134;Laerm;25175;50.140;18.990;2023-07-20T04:10:51;40.25;34.49;48.89;;
77134;Laerm;25175;50.140;18.990;2023-07-20T04:13:56;43.98;34.07;55.27;;
77134;Laerm;25175;50.140;18.990;2023-07-20T04:17:01;44.73;34.39;61.06;;
77134;Laerm;25175;50.140;18.990;2023-07-20T04:20:08;40.14;33.72;53.64;;
77134;Laerm;25175;50.140;18.990;2023-07-20T04:23:15;43.96;33.92;55.99;;
77134;Laerm;25175;50.140;18.990;2023-07-20T04:26:20;42.20;33.99;54.59;;
77134;Laerm;25175;50.140;18.990;2023-07-20T04:29:25;43.59;33.74;62.32;;
77134;Laerm;25175;50.140;18.990;2023-07-20T04:32:30;42.83;34.24;57.57;;
77134;Laerm;25175;50.140;18.990;2023-07-20T04:35:49;43.76;35.30;56.34;;
77134;Laerm;25175;50.140;18.990;2023-07-20T04:39:07;44.52;34.30;56.26;;
77134;Laerm;25175;50.140;18.990;2023-07-20T04:42:16;46.52;34.22;58.40;;
77134;Laerm;25175;50.140;18.990;2023-07-20T04:45:22;44.64;34.23;58.32;;
77134;Laerm;25175;50.140;18.990;2023-07-20T04:48:27;43.23;34.40;58.90;;
77134;Laerm;25175;50.140;18.990;2023-07-20T04:51:32;42.25;34.47;56.03;;
77134;Laerm;25175;50.140;18.990;2023-07-20T04:54:40;44.65;35.10;57.21;;
77134;Laerm;25175;50.140;18.990;2023-07-20T04:57:48;44.93;34.79;62.36;;
77134;Laerm;25175;50.140;18.990;2023-07-20T05:00:53;42.16;34.25;55.75;;
77134;Laerm;25175;50.140;18.990;2023-07-20T05:03:59;44.37;34.42;56.78;;
77134;Laerm;25175;50.140;18.990;2023-07-20T05:07:04;36.92;34.13;45.15;;
77134;Laerm;25175;50.140;18.990;2023-07-20T05:10:12;45.48;35.04;62.92;;
77134;Laerm;25175;50.140;18.990;2023-07-20T05:13:17;43.60;34.66;56.94;;
77134;Laerm;25175;50.140;18.990;2023-07-20T05:16:22;45.23;35.38;59.64;;
77134;Laerm;25175;50.140;18.990;2023-07-20T05:19:27;44.39;35.31;56.79;;
77134;Laerm;25175;50.140;18.990;2023-07-20T05:22:33;44.73;34.28;62.90;;
77134;Laerm;25175;50.140;18.990;2023-07-20T05:25:40;46.36;35.17;59.90;;
77134;Laerm;25175;50.140;18.990;2023-07-20T05:28:45;43.60;35.06;58.12;;
77134;Laerm;25175;50.140;18.990;2023-07-20T05:31:49;46.52;34.82;59.00;;
77134;Laerm;25175;50.140;18.990;2023-07-20T05:34:55;42.95;35.24;58.68;;
77134;Laerm;25175;50.140;18.990;2023-07-20T05:37:59;45.59;35.00;60.29;;
77134;Laerm;25175;50.140;18.990;2023-07-20T05:41:08;46.95;35.61;68.14;;
77134;Laerm;25175;50.140;18.990;2023-07-20T05:44:13;44.55;34.98;57.89;;
77134;Laerm;25175;50.140;18.990;2023-07-20T05:47:18;42.69;34.80;59.23;;
77134;Laerm;25175;50.140;18.990;2023-07-20T05:50:23;45.51;34.91;57.68;;
77134;Laerm;25175;50.140;18.990;2023-07-20T05:53:28;45.11;35.56;58.14;;
77134;Laerm;25175;50.140;18.990;2023-07-20T05:56:35;44.20;34.96;57.26;;
77134;Laerm;25175;50.140;18.990;2023-07-20T05:59:40;55.76;34.94;75.80;;
77134;Laerm;25175;50.140;18.990;2023-07-20T06:02:45;46.22;34.91;66.31;;
77134;Laerm;25175;50.140;18.990;2023-07-20T06:05:51;44.37;34.45;57.91;;
77134;Laerm;25175;50.140;18.990;2023-07-20T06:08:55;42.33;34.75;53.07;;
77134;Laerm;25175;50.140;18.990;2023-07-20T06:12:04;42.67;34.72;57.20;;
77134;Laerm;25175;50.140;18.990;2023-07-20T06:15:26;44.77;35.41;56.98;;
77134;Laerm;25175;50.140;18.990;2023-07-20T06:18:31;43.74;34.83;55.72;;
77134;Laerm;25175;50.140;18.990;2023-07-20T06:21:35;45.43;35.35;57.42;;
77134;Laerm;25175;50.140;18.990;2023-07-20T06:24:41;49.95;36.46;69.13;;
77134;Laerm;25175;50.140;18.990;2023-07-20T06:27:50;43.79;34.95;57.65;;
77134;Laerm;25175;50.140;18.990;2023-07-20T06:31:00;44.47;35.06;67.17;;
77134;Laerm;25175;50.140;18.990;2023-07-20T06:34:04;42.87;34.47;54.91;;
77134;Laerm;25175;50.140;18.990;2023-07-20T06:37:09;43.61;34.52;54.94;;
77134;Laerm;25175;50.140;18.990;2023-07-20T06:40:14;43.76;34.57;55.90;;
77134;Laerm;25175;50.140;18.990;2023-07-20T06:43:22;46.30;34.03;65.78;;
77134;Laerm;25175;50.140;18.990;2023-07-20T06:46:26;45.04;34.50;61.91;;
77134;Laerm;25175;50.140;18.990;2023-07-20T06:49:31;44.52;34.84;55.92;;
77134;Laerm;25175;50.140;18.990;2023-07-20T06:52:36;41.31;34.24;58.06;;
77134;Laerm;25175;50.140;18.990;2023-07-20T06:55:42;44.31;34.47;55.67;;
77134;Laerm;25175;50.140;18.990;2023-07-20T06:58:49;43.48;34.59;56.06;;
77134;Laerm;25175;50.140;18.990;2023-07-20T07:01:54;45.63;34.41;59.35;;
77134;Laerm;25175;50.140;18.990;2023-07-20T07:04:59;42.81;34.38;54.56;;
77134;Laerm;25175;50.140;18.990;2023-07-20T07:08:05;45.10;35.45;58.43;;
77134;Laerm;25175;50.140;18.990;2023-07-20T07:11:09;47.32;35.58;65.29;;
77134;Laerm;25175;50.140;18.990;2023-07-20T07:14:17;45.56;34.79;62.74;;
77134;Laerm;25175;50.140;18.990;2023-07-20T07:17:22;48.14;35.05;66.58;;
77134;Laerm;25175;50.140;18.990;2023-07-20T07:20:28;46.19;34.73;60.90;;
77134;Laerm;25175;50.140;18.990;2023-07-20T07:23:33;43.58;34.73;57.44;;
77134;Laerm;25175;50.140;18.990;2023-07-20T07:26:38;40.67;35.01;55.19;;
77134;Laerm;25175;50.140;18.990;2023-07-20T07:29:45;43.21;35.09;56.98;;
77134;Laerm;25175;50.140;18.990;2023-07-20T07:32:51;47.04;35.46;68.19;;
77134;Laerm;25175;50.140;18.990;2023-07-20T07:35:55;47.67;34.97;76.02;;
77134;Laerm;25175;50.140;18.990;2023-07-20T07:39:00;44.01;34.58;56.50;;
77134;Laerm;25175;50.140;18.990;2023-07-20T07:42:06;43.29;35.11;57.84;;
77134;Laerm;25175;50.140;18.990;2023-07-20T07:45:14;46.01;35.23;62.20;;
77134;Laerm;25175;50.140;18.990;2023-07-20T07:48:18;46.34;35.08;62.27;;
77134;Laerm;25175;50.140;18.990;2023-07-20T07:51:24;51.97;37.24;71.20;;
77134;Laerm;25175;50.140;18.990;2023-07-20T07:54:28;43.15;33.97;58.73;;
77134;Laerm;25175;50.140;18.990;2023-07-20T07:57:34;50.88;34.84;65.88;;
77134;Laerm;25175;50.140;18.990;2023-07-20T08:00:41;49.86;34.86;64.33;;
77134;Laerm;25175;50.140;18.990;2023-07-20T08:03:46;49.06;35.63;63.35;;
77134;Laerm;25175;50.140;18.990;2023-07-20T08:06:51;46.54;36.62;61.30;;
77134;Laerm;25175;50.140;18.990;2023-07-20T08:09:56;43.97;35.95;60.08;;
77134;Laerm;25175;50.140;18.990;2023-07-20T08:13:01;45.40;37.21;57.11;;
77134;Laerm;25175;50.140;18.990;2023-07-20T08:16:09;50.53;37.29;71.56;;
77134;Laerm;25175;50.140;18.990;2023-07-20T08:19:14;43.37;36.17;60.48;;
77134;Laerm;25175;50.140;18.990;2023-07-20T08:22:20;46.75;36.03;62.16;;
77134;Laerm;25175;50.140;18.990;2023-07-20T08:25:25;51.45;34.20;70.51;;
77134;Laerm;25175;50.140;18.990;2023-07-20T08:28:30;46.12;34.92;59.00;;
77134;Laerm;25175;50.140;18.990;2023-07-20T08:31:37;43.27;35.54;56.66;;
77134;Laerm;25175;50.140;18.990;2023-07-20T08:34:43;48.31;36.61;68.09;;
77134;Laerm;25175;50.140;18.990;2023-07-20T08:37:47;43.07;34.51;56.60;;
77134;Laerm;25175;50.140;18.990;2023-07-20T08:40:53;45.78;35.33;58.56;;
77134;Laerm;25175;50.140;18.990;2023-07-20T08:43:59;46.83;34.62;69.12;;
77134;Laerm;25175;50.140;18.990;2023-07-20T08:47:09;47.08;35.63;65.74;;
77134;Laerm;25175;50.140;18.990;2023-07-20T08:50:16;45.72;35.42;58.58;;
77134;Laerm;25175;50.140;18.990;2023-07-20T08:53:21;44.82;37.00;56.77;;
77134;Laerm;25175;50.140;18.990;2023-07-20T08:56:26;44.38;36.97;60.60;;
77134;Laerm;25175;50.140;18.990;2023-07-20T08:59:34;45.37;35.98;56.41;;
77134;Laerm;25175;50.140;18.990;2023-07-20T09:02:46;47.40;34.53;63.28;;
77134;Laerm;25175;50.140;18.990;2023-07-20T09:05:52;48.07;34.92;61.04;;
77134;Laerm;25175;50.140;18.990;2023-07-20T09:08:57;43.78;35.16;60.91;;
77134;Laerm;25175;50.140;18.990;2023-07-20T09:12:04;46.64;34.45;64.65;;
77134;Laerm;25175;50.140;18.990;2023-07-20T09:15:11;43.63;34.17;55.74;;
77134;Laerm;25175;50.140;18.990;2023-07-20T09:18:29;43.99;35.33;55.29;;
77134;Laerm;25175;50.140;18.990;2023-07-20T09:21:35;46.05;34.94;60.91;;
77134;Laerm;25175;50.140;18.990;2023-07-20T09:24:42;43.88;35.92;54.43;;
77134;Laerm;25175;50.140;18.990;2023-07-20T09:27:48;44.76;35.09;58.31;;
77134;Laerm;25175;50.140;18.990;2023-07-20T09:30:55;46.02;34.46;61.74;;
77134;Laerm;25175;50.140;18.990;2023-07-20T09:34:05;47.97;34.34;65.73;;
77134;Laerm;25175;50.140;18.990;2023-07-20T09:37:10;44.83;35.15;56.69;;
77134;Laerm;25175;50.140;18.990;2023-07-20T09:40:18;45.87;34.27;60.33;;
77134;Laerm;25175;50.140;18.990;2023-07-20T09:43:24;46.69;34.95;66.64;;
77134;Laerm;25175;50.140;18.990;2023-07-20T09:46:43;43.49;35.13;56.77;;
77134;Laerm;25175;50.140;18.990;2023-07-20T09:49:58;41.94;35.04;53.46;;
77134;Laerm;25175;50.140;18.990;2023-07-20T09:53:05;43.35;34.87;56.44;;
77134;Laerm;25175;50.140;18.990;2023-07-20T09:56:13;47.97;33.86;63.19;;
77134;Laerm;25175;50.140;18.990;2023-07-20T09:59:20;43.30;34.92;58.89;;
77134;Laerm;25175;50.140;18.990;2023-07-20T10:02:33;47.97;35.65;60.19;;
77134;Laerm;25175;50.140;18.990;2023-07-20T10:05:48;45.95;34.90;59.99;;
77134;Laerm;25175;50.140;18.990;2023-07-20T10:09:02;50.49;37.78;69.64;;
77134;Laerm;25175;50.140;18.990;2023-07-20T10:12:10;49.35;38.75;65.65;;
77134;Laerm;25175;50.140;18.990;2023-07-20T10:15:23;51.08;38.18;69.64;;
77134;Laerm;25175;50.140;18.990;2023-07-20T10:18:38;47.89;35.55;61.92;;
77134;Laerm;25175;50.140;18.990;2023-07-20T10:22:00;53.39;35.35;83.67;;
77134;Laerm;25175;50.140;18.990;2023-07-20T10:25:07;55.67;35.30;75.05;;
77134;Laerm;25175;50.140;18.990;2023-07-20T10:28:14;47.09;35.53;65.09;;
77134;Laerm;25175;50.140;18.990;2023-07-20T10:31:19;42.23;34.83;54.40;;
77134;Laerm;25175;50.140;18.990;2023-07-20T10:34:25;45.97;34.31;58.36;;
77134;Laerm;25175;50.140;18.990;2023-07-20T10:37:54;44.39;35.01;64.36;;
77134;Laerm;25175;50.140;18.990;2023-07-20T10:41:00;44.75;34.63;59.00;;
77134;Laerm;25175;50.140;18.990;2023-07-20T10:44:07;44.59;35.41;57.07;;
77134;Laerm;25175;50.140;18.990;2023-07-20T10:47:14;45.21;35.14;63.77;;
77134;Laerm;25175;50.140;18.990;2023-07-20T10:50:21;45.66;35.13;61.20;;
77134;Laerm;25175;50.140;18.990;2023-07-20T10:53:29;41.90;34.44;56.80;;
77134;Laerm;25175;50.140;18.990;2023-07-20T10:56:34;45.35;35.38;58.48;;
77134;Laerm;25175;50.140;18.990;2023-07-20T10:59:42;43.99;34.88;61.29;;
77134;Laerm;25175;50.140;18.990;2023-07-20T11:02:48;43.11;34.58;55.66;;
77134;Laerm;25175;50.140;18.990;2023-07-20T11:05:53;45.12;34.60;63.23;;
77134;Laerm;25175;50.140;18.990;2023-07-20T11:09:07;44.63;35.08;57.26;;
77134;Laerm;25175;50.140;18.990;2023-07-20T11:12:15;44.27;34.67;56.66;;
77134;Laerm;25175;50.140;18.990;2023-07-20T11:15:20;45.65;34.55;62.07;;
77134;Laerm;25175;50.140;18.990;2023-07-20T11:18:26;44.19;34.19;60.68;;
77134;Laerm;25175;50.140;18.990;2023-07-20T11:21:37;46.12;35.47;63.08;;
77134;Laerm;25175;50.140;18.990;2023-07-20T11:24:45;45.76;35.68;64.67;;
77134;Laerm;25175;50.140;18.990;2023-07-20T11:27:50;44.80;35.20;57.74;;
77134;Laerm;25175;50.140;18.990;2023-07-20T11:30:57;42.92;35.02;55.56;;
77134;Laerm;25175;50.140;18.990;2023-07-20T11:34:01;44.63;35.28;54.77;;
77134;Laerm;25175;50.140;18.990;2023-07-20T11:37:07;48.31;35.06;63.09;;
77134;Laerm;25175;50.140;18.990;2023-07-20T11:40:14;43.80;34.96;56.10;;
77134;Laerm;25175;50.140;18.990;2023-07-20T11:43:20;47.03;35.49;60.79;;
77134;Laerm;25175;50.140;18.990;2023-07-20T11:46:25;45.28;35.75;55.34;;
77134;Laerm;25175;50.140;18.990;2023-07-20T11:49:34;42.56;34.57;57.11;;
77134;Laerm;25175;50.140;18.990;2023-07-20T11:52:40;47.78;34.49;62.62;;
77134;Laerm;25175;50.140;18.990;2023-07-20T11:55:49;43.54;34.51;70.04;;
77134;Laerm;25175;50.140;18.990;2023-07-20T11:58:58;45.25;35.53;70.48;;
77134;Laerm;25175;50.140;18.990;2023-07-20T12:02:06;41.01;34.75;55.16;;
77134;Laerm;25175;50.140;18.990;2023-07-20T12:05:12;42.88;34.17;58.43;;
77134;Laerm;25175;50.140;18.990;2023-07-20T12:08:18;47.46;34.78;64.01;;
77134;Laerm;25175;50.140;18.990;2023-07-20T12:11:36;44.17;35.05;57.38;;
77134;Laerm;25175;50.140;18.990;2023-07-20T12:14:41;41.03;35.21;57.08;;
77134;Laerm;25175;50.140;18.990;2023-07-20T12:17:49;44.91;34.89;55.82;;
77134;Laerm;25175;50.140;18.990;2023-07-20T12:20:59;47.48;35.89;60.62;;
77134;Laerm;25175;50.140;18.990;2023-07-20T12:24:04;44.85;35.27;60.16;;
77134;Laerm;25175;50.140;18.990;2023-07-20T12:27:16;46.09;34.85;57.19;;
77134;Laerm;25175;50.140;18.990;2023-07-20T12:30:20;44.55;35.52;55.33;;
77134;Laerm;25175;50.140;18.990;2023-07-20T12:33:25;45.45;34.51;58.76;;
77134;Laerm;25175;50.140;18.990;2023-07-20T12:36:30;41.30;34.80;54.13;;
77134;Laerm;25175;50.140;18.990;2023-07-20T12:39:36;44.19;34.63;55.62;;
77134;Laerm;25175;50.140;18.990;2023-07-20T12:42:46;43.96;34.56;58.27;;
77134;Laerm;25175;50.140;18.990;2023-07-20T12:45:52;44.51;34.94;55.84;;
77134;Laerm;25175;50.140;18.990;2023-07-20T12:48:56;45.06;34.44;58.02;;
77134;Laerm;25175;50.140;18.990;2023-07-20T12:52:01;45.71;34.25;60.35;;
77134;Laerm;25175;50.140;18.990;2023-07-20T12:55:09;45.43;35.10;58.56;;
77134;Laerm;25175;50.140;18.990;2023-07-20T12:58:17;47.48;34.37;64.79;;
77134;Laerm;25175;50.140;18.990;2023-07-20T13:01:21;44.16;35.37;58.62;;
77134;Laerm;25175;50.140;18.990;2023-07-20T13:04:27;39.07;34.07;55.62;;
77134;Laerm;25175;50.140;18.990;2023-07-20T13:07:33;43.39;34.12;54.18;;
77134;Laerm;25175;50.140;18.990;2023-07-20T13:10:39;48.58;34.25;65.22;;
77134;Laerm;25175;50.140;18.990;2023-07-20T13:13:46;44.32;34.11;63.93;;
77134;Laerm;25175;50.140;18.990;2023-07-20T13:16:51;45.59;34.64;61.78;;
77134;Laerm;25175;50.140;18.990;2023-07-20T13:19:55;46.24;35.34;58.27;;
77134;Laerm;25175;50.140;18.990;2023-07-20T13:23:01;43.87;34.50;61.57;;
77134;Laerm;25175;50.140;18.990;2023-07-20T13:26:05;43.46;34.43;57.83;;
77134;Laerm;25175;50.140;18.990;2023-07-20T13:29:13;48.96;35.58;68.68;;
77134;Laerm;25175;50.140;18.990;2023-07-20T13:32:18;45.50;34.79;69.26;;
77134;Laerm;25175;50.140;18.990;2023-07-20T13:35:24;46.18;35.42;63.96;;
77134;Laerm;25175;50.140;18.990;2023-07-20T13:38:28;44.60;34.87;62.14;;
77134;Laerm;25175;50.140;18.990;2023-07-20T13:41:33;44.61;35.18;61.58;;
77134;Laerm;25175;50.140;18.990;2023-07-20T13:44:41;42.93;34.09;56.06;;
77134;Laerm;25175;50.140;18.990;2023-07-20T13:47:46;44.16;34.99;56.97;;
77134;Laerm;25175;50.140;18.990;2023-07-20T13:50:51;45.73;34.74;60.58;;
77134;Laerm;25175;50.140;18.990;2023-07-20T13:53:57;56.57;34.61;88.88;;
77134;Laerm;25175;50.140;18.990;2023-07-20T13:57:03;49.09;34.35;73.36;;
77134;Laerm;25175;50.140;18.990;2023-07-20T14:00:13;49.57;34.40;75.65;;
77134;Laerm;25175;50.140;18.990;2023-07-20T14:03:18;46.88;35.77;68.22;;
77134;Laerm;25175;50.140;18.990;2023-07-20T14:06:23;48.29;34.47;66.13;;
77134;Laerm;25175;50.140;18.990;2023-07-20T14:09:27;52.22;34.96;80.16;;
77134;Laerm;25175;50.140;18.990;2023-07-20T14:12:32;52.75;37.52;73.48;;
77134;Laerm;25175;50.140;18.990;2023-07-20T14:15:39;48.57;39.81;70.61;;
77134;Laerm;25175;50.140;18.990;2023-07-20T14:18:45;62.25;42.17;84.40;;
77134;Laerm;25175;50.140;18.990;2023-07-20T14:21:50;48.80;40.48;60.62;;
77134;Laerm;25175;50.140;18.990;2023-07-20T14:24:57;46.01;38.11;61.51;;
77134;Laerm;25175;50.140;18.990;2023-07-20T14:28:02;43.44;36.17;57.62;;
77134;Laerm;25175;50.140;18.990;2023-07-20T14:31:10;47.44;36.14;59.70;;
77134;Laerm;25175;50.140;18.990;2023-07-20T14:34:15;49.70;37.36;65.28;;
77134;Laerm;25175;50.140;18.990;2023-07-20T14:37:21;45.64;37.21;59.76;;
77134;Laerm;25175;50.140;18.990;2023-07-20T14:40:25;48.33;38.54;65.93;;
77134;Laerm;25175;50.140;18.990;2023-07-20T14:43:30;49.15;38.65;73.26;;
77134;Laerm;25175;50.140;18.990;2023-07-20T14:46:37;45.34;38.69;61.20;;
77134;Laerm;25175;50.140;18.990;2023-07-20T14:49:43;45.69;38.07;64.56;;
77134;Laerm;25175;50.140;18.990;2023-07-20T14:52:47;46.56;38.14;69.46;;
77134;Laerm;25175;50.140;18.990;2023-07-20T14:55:53;44.49;37.95;62.30;;
77134;Laerm;25175;50.140;18.990;2023-07-20T14:58:58;48.03;38.74;60.44;;
77134;Laerm;25175;50.140;18.990;2023-07-20T15:02:06;45.08;37.81;56.66;;
77134;Laerm;25175;50.140;18.990;2023-07-20T15:05:11;44.07;37.49;57.61;;
77134;Laerm;25175;50.140;18.990;2023-07-20T15:08:17;44.75;37.52;55.69;;
77134;Laerm;25175;50.140;18.990;2023-07-20T15:11:23;46.22;37.58;62.45;;
77134;Laerm;25175;50.140;18.990;2023-07-20T15:14:28;44.90;37.39;61.46;;
77134;Laerm;25175;50.140;18.990;2023-07-20T15:17:36;45.18;36.91;58.22;;
77134;Laerm;25175;50.140;18.990;2023-07-20T15:20:41;44.89;36.65;59.09;;
77134;Laerm;25175;50.140;18.990;2023-07-20T15:23:46;43.49;35.42;57.38;;
77134;Laerm;25175;50.140;18.990;2023-07-20T15:26:51;44.58;35.53;58.35;;
77134;Laerm;25175;50.140;18.990;2023-07-20T15:29:56;47.37;36.01;64.41;;
77134;Laerm;25175;50.140;18.990;2023-07-20T15:33:03;46.94;36.49;60.00;;
77134;Laerm;25175;50.140;18.990;2023-07-20T15:36:08;45.90;36.67;59.44;;
77134;Laerm;25175;50.140;18.990;2023-07-20T15:39:13;49.82;36.26;68.77;;
77134;Laerm;25175;50.140;18.990;2023-07-20T15:42:17;54.86;35.99;69.94;;
77134;Laerm;25175;50.140;18.990;2023-07-20T15:45:23;50.02;36.26;68.38;;
77134;Laerm;25175;50.140;18.990;2023-07-20T15:48:30;41.65;35.52;56.81;;
77134;Laerm;25175;50.140;18.990;2023-07-20T15:51:37;43.01;35.81;54.81;;
77134;Laerm;25175;50.140;18.990;2023-07-20T15:54:42;44.09;35.55;56.24;;
77134;Laerm;25175;50.140;18.990;2023-07-20T15:57:48;39.52;34.63;56.00;;
77134;Laerm;25175;50.140;18.990;2023-07-20T16:00:55;44.20;34.44;56.37;;
77134;Laerm;25175;50.140;18.990;2023-07-20T16:04:04;46.03;34.81;59.74;;
77134;Laerm;25175;50.140;18.990;2023-07-20T16:07:08;43.83;34.25;59.52;;
77134;Laerm;25175;50.140;18.990;2023-07-20T16:10:14;50.39;34.78;71.12;;
77134;Laerm;25175;50.140;18.990;2023-07-20T16:13:18;44.93;34.65;57.46;;
77134;Laerm;25175;50.140;18.990;2023-07-20T16:16:24;45.19;34.00;65.40;;
77134;Laerm;25175;50.140;18.990;2023-07-20T16:19:31;56.88;34.93;77.26;;
77134;Laerm;25175;50.140;18.990;2023-07-20T16:22:37;44.49;34.28;62.18;;
77134;Laerm;25175;50.140;18.990;2023-07-20T16:25:45;44.80;34.52;58.36;;
77134;Laerm;25175;50.140;18.990;2023-07-20T16:28:51;46.00;35.46;59.73;;
77134;Laerm;25175;50.140;18.990;2023-07-20T16:31:55;45.25;34.19;57.94;;
77134;Laerm;25175;50.140;18.990;2023-07-20T16:35:05;43.81;34.76;55.18;;
77134;Laerm;25175;50.140;18.990;2023-07-20T16:38:09;44.54;35.43;59.82;;
77134;Laerm;25175;50.140;18.990;2023-07-20T16:41:15;44.24;34.37;61.95;;
77134;Laerm;25175;50.140;18.990;2023-07-20T16:44:19;42.21;34.33;57.65;;
77134;Laerm;25175;50.140;18.990;2023-07-20T16:47:25;43.50;34.08;60.75;;
77134;Laerm;25175;50.140;18.990;2023-07-20T16:50:32;46.41;34.68;62.63;;
77134;Laerm;25175;50.140;18.990;2023-07-20T16:53:37;47.36;34.22;64.45;;
77134;Laerm;25175;50.140;18.990;2023-07-20T16:56:41;44.69;33.72;57.89;;
77134;Laerm;25175;50.140;18.990;2023-07-20T16:59:47;41.03;33.83;54.18;;
77134;Laerm;25175;50.140;18.990;2023-07-20T17:02:51;45.21;34.32;62.90;;
77134;Laerm;25175;50.140;18.990;2023-07-20T17:06:00;45.74;35.10;62.39;;
77134;Laerm;25175;50.140;18.990;2023-07-20T17:09:06;47.16;34.53;67.63;;